Morrisville, Missouri
Current Conditions -  °F | °C
As of 10:52 AM on Saturday 25 Oct 2014 (Local Time) from KSGF Reporting Station
Clear Clear  
Wind Chill: 73°   Ceiling: Unl
Heat Index: 73°   Visibility: 10mi
Dew Point: 62°   Wind: 7mph
Humidity: 68%   Direction: 270°W
Pressure: 30.09"   Gusts: NA
Location:  37.48°N, 93.43°W
Report Text: KSGF 251552Z 27006KT 10SM CLR 23/17 A3009 RMK AO2 SLP182 T02280167
Loading
Personal Weather Stations






























Interactive Weather Map New forecast layout! Learn more

10-Day Weather Forecast

Advertisements
Track Severe Weather on mobile